sensor_id;sensor_type;location;lat;lon;timestamp;pressure;altitude;pressure_sealevel;temperature;humidity
46045;BME280;31781;54.094;13.428;2023-11-19T00:00:06;101615.28;;;5.05;71.82
46045;BME280;31781;54.094;13.428;2023-11-19T00:02:08;101607.19;;;5.05;71.59
46045;BME280;31781;54.094;13.428;2023-11-19T00:04:10;101600.81;;;5.06;72.13
46045;BME280;31781;54.094;13.428;2023-11-19T00:06:11;101599.97;;;5.06;72.31
46045;BME280;31781;54.094;13.428;2023-11-19T00:08:13;101597.28;;;5.06;72.20
46045;BME280;31781;54.094;13.428;2023-11-19T00:10:16;101592.72;;;5.06;72.23
46045;BME280;31781;54.094;13.428;2023-11-19T00:12:19;101589.00;;;5.07;71.45
46045;BME280;31781;54.094;13.428;2023-11-19T00:14:21;101583.63;;;5.07;72.53
46045;BME280;31781;54.094;13.428;2023-11-19T00:16:22;101579.25;;;5.06;71.76
46045;BME280;31781;54.094;13.428;2023-11-19T00:18:24;101580.91;;;5.07;72.10
46045;BME280;31781;54.094;13.428;2023-11-19T00:20:26;101570.28;;;5.06;72.34
46045;BME280;31781;54.094;13.428;2023-11-19T00:22:27;101567.59;;;5.06;71.43
46045;BME280;31781;54.094;13.428;2023-11-19T00:24:29;101556.94;;;5.04;71.57
46045;BME280;31781;54.094;13.428;2023-11-19T00:26:30;101544.19;;;5.06;71.63
46045;BME280;31781;54.094;13.428;2023-11-19T00:28:33;101536.91;;;5.07;71.89
46045;BME280;31781;54.094;13.428;2023-11-19T00:30:36;101537.94;;;5.06;71.45
46045;BME280;31781;54.094;13.428;2023-11-19T00:32:38;101532.22;;;5.09;72.17
46045;BME280;31781;54.094;13.428;2023-11-19T00:34:40;101536.75;;;5.08;71.44
46045;BME280;31781;54.094;13.428;2023-11-19T00:36:41;101528.53;;;5.10;71.75
46045;BME280;31781;54.094;13.428;2023-11-19T00:38:43;101525.84;;;5.10;71.75
46045;BME280;31781;54.094;13.428;2023-11-19T00:40:45;101517.75;;;5.10;71.82
46045;BME280;31781;54.094;13.428;2023-11-19T00:42:46;101520.44;;;5.10;71.94
46045;BME280;31781;54.094;13.428;2023-11-19T00:44:52;101516.72;;;5.11;71.87
46045;BME280;31781;54.094;13.428;2023-11-19T00:46:53;101501.56;;;5.10;71.43
46045;BME280;31781;54.094;13.428;2023-11-19T00:48:55;101496.97;;;5.10;71.82
46045;BME280;31781;54.094;13.428;2023-11-19T00:50:57;101483.66;;;5.09;72.06
46045;BME280;31781;54.094;13.428;2023-11-19T00:52:58;101483.34;;;5.12;71.64
46045;BME280;31781;54.094;13.428;2023-11-19T00:55:00;101474.59;;;5.10;72.03
46045;BME280;31781;54.094;13.428;2023-11-19T00:57:02;101467.50;;;5.09;71.85
46045;BME280;31781;54.094;13.428;2023-11-19T00:59:04;101458.22;;;5.11;71.96
46045;BME280;31781;54.094;13.428;2023-11-19T01:01:07;101460.94;;;5.11;72.42
46045;BME280;31781;54.094;13.428;2023-11-19T01:03:09;101439.53;;;5.10;72.60
46045;BME280;31781;54.094;13.428;2023-11-19T01:05:11;101448.44;;;5.10;72.43
46045;BME280;31781;54.094;13.428;2023-11-19T01:07:13;101445.59;;;5.12;72.21
46045;BME280;31781;54.094;13.428;2023-11-19T01:09:15;101444.75;;;5.11;72.97
46045;BME280;31781;54.094;13.428;2023-11-19T01:11:19;101436.66;;;5.11;72.98
46045;BME280;31781;54.094;13.428;2023-11-19T01:13:21;101426.72;;;5.12;72.66
46045;BME280;31781;54.094;13.428;2023-11-19T01:15:23;101425.00;;;5.11;73.18
46045;BME280;31781;54.094;13.428;2023-11-19T01:17:26;101428.56;;;5.11;73.68
46045;BME280;31781;54.094;13.428;2023-11-19T01:19:28;101428.41;;;5.13;73.50
46045;BME280;31781;54.094;13.428;2023-11-19T01:21:30;101441.91;;;5.13;73.49
46045;BME280;31781;54.094;13.428;2023-11-19T01:23:31;101432.97;;;5.12;73.29
46045;BME280;31781;54.094;13.428;2023-11-19T01:25:33;101436.50;;;5.13;73.45
46045;BME280;31781;54.094;13.428;2023-11-19T01:27:35;101424.00;;;5.12;73.18
46045;BME280;31781;54.094;13.428;2023-11-19T01:29:36;101406.97;;;5.11;73.61
46045;BME280;31781;54.094;13.428;2023-11-19T01:31:38;101412.22;;;5.13;74.00
46045;BME280;31781;54.094;13.428;2023-11-19T01:33:41;101394.19;;;5.13;73.66
46045;BME280;31781;54.094;13.428;2023-11-19T01:35:42;101393.34;;;5.13;73.05
46045;BME280;31781;54.094;13.428;2023-11-19T01:37:44;101396.03;;;5.13;73.78
46045;BME280;31781;54.094;13.428;2023-11-19T01:39:45;101392.50;;;5.12;73.31
46045;BME280;31781;54.094;13.428;2023-11-19T01:41:59;101393.50;;;5.11;73.98
46045;BME280;31781;54.094;13.428;2023-11-19T01:44:01;101384.41;;;5.12;74.10
46045;BME280;31781;54.094;13.428;2023-11-19T01:46:04;101387.25;;;5.11;74.25
46045;BME280;31781;54.094;13.428;2023-11-19T01:48:07;101379.16;;;5.11;73.54
46045;BME280;31781;54.094;13.428;2023-11-19T01:50:11;101364.81;;;5.10;74.08
46045;BME280;31781;54.094;13.428;2023-11-19T01:52:13;101366.53;;;5.11;74.05
46045;BME280;31781;54.094;13.428;2023-11-19T01:54:15;101358.59;;;5.10;73.81
46045;BME280;31781;54.094;13.428;2023-11-19T01:56:17;101350.34;;;5.11;74.19
46045;BME280;31781;54.094;13.428;2023-11-19T01:58:31;101341.41;;;5.11;73.58
46045;BME280;31781;54.094;13.428;2023-11-19T02:00:32;101332.44;;;5.10;73.71
46045;BME280;31781;54.094;13.428;2023-11-19T02:02:34;101323.84;;;5.07;74.32
46045;BME280;31781;54.094;13.428;2023-11-19T02:04:36;101313.91;;;5.07;74.42
46045;BME280;31781;54.094;13.428;2023-11-19T02:06:40;101310.19;;;5.08;74.00
46045;BME280;31781;54.094;13.428;2023-11-19T02:08:43;101311.91;;;5.09;74.36
46045;BME280;31781;54.094;13.428;2023-11-19T02:10:45;101299.28;;;5.10;74.27
46045;BME280;31781;54.094;13.428;2023-11-19T02:12:46;101296.72;;;5.08;74.27
46045;BME280;31781;54.094;13.428;2023-11-19T02:14:48;101289.47;;;5.09;73.85
46045;BME280;31781;54.094;13.428;2023-11-19T02:16:49;101272.44;;;5.08;74.24
46045;BME280;31781;54.094;13.428;2023-11-19T02:18:51;101268.75;;;5.09;73.50
46045;BME280;31781;54.094;13.428;2023-11-19T02:20:53;101266.06;;;5.09;73.70
46045;BME280;31781;54.094;13.428;2023-11-19T02:22:56;101270.28;;;5.12;74.21
46045;BME280;31781;54.094;13.428;2023-11-19T02:25:00;101259.63;;;5.10;73.98
46045;BME280;31781;54.094;13.428;2023-11-19T02:27:09;101265.72;;;5.12;74.29
46045;BME280;31781;54.094;13.428;2023-11-19T02:29:13;101262.19;;;5.12;73.67
46045;BME280;31781;54.094;13.428;2023-11-19T02:31:15;101253.09;;;5.13;74.11
46045;BME280;31781;54.094;13.428;2023-11-19T02:33:16;101245.16;;;5.11;73.79
46045;BME280;31781;54.094;13.428;2023-11-19T02:35:18;101247.69;;;5.13;73.81
46045;BME280;31781;54.094;13.428;2023-11-19T02:37:21;101256.63;;;5.13;73.90
46045;BME280;31781;54.094;13.428;2023-11-19T02:39:22;101248.53;;;5.13;73.46
46045;BME280;31781;54.094;13.428;2023-11-19T02:41:24;101235.06;;;5.13;73.92
46045;BME280;31781;54.094;13.428;2023-11-19T02:43:25;101227.78;;;5.14;73.94
46045;BME280;31781;54.094;13.428;2023-11-19T02:45:28;101224.28;;;5.13;73.96
46045;BME280;31781;54.094;13.428;2023-11-19T02:47:30;101218.69;;;5.15;74.49
46045;BME280;31781;54.094;13.428;2023-11-19T02:49:32;101225.78;;;5.16;74.17
46045;BME280;31781;54.094;13.428;2023-11-19T02:51:33;101221.38;;;5.15;74.16
46045;BME280;31781;54.094;13.428;2023-11-19T02:53:35;101221.25;;;5.16;74.05
46045;BME280;31781;54.094;13.428;2023-11-19T02:55:37;101199.81;;;5.15;74.40
46045;BME280;31781;54.094;13.428;2023-11-19T02:57:38;101193.41;;;5.16;74.54
46045;BME280;31781;54.094;13.428;2023-11-19T02:59:40;101190.72;;;5.16;74.98
46045;BME280;31781;54.094;13.428;2023-11-19T03:01:43;101178.22;;;5.15;75.27
46045;BME280;31781;54.094;13.428;2023-11-19T03:03:45;101168.44;;;5.14;74.83
46045;BME280;31781;54.094;13.428;2023-11-19T03:05:46;101166.44;;;5.16;75.29
46045;BME280;31781;54.094;13.428;2023-11-19T03:07:48;101165.44;;;5.17;74.86
46045;BME280;31781;54.094;13.428;2023-11-19T03:09:50;101158.34;;;5.16;75.24
46045;BME280;31781;54.094;13.428;2023-11-19T03:11:51;101151.25;;;5.15;75.54
46045;BME280;31781;54.094;13.428;2023-11-19T03:13:53;101139.47;;;5.16;75.67
46045;BME280;31781;54.094;13.428;2023-11-19T03:15:55;101135.94;;;5.15;75.02
46045;BME280;31781;54.094;13.428;2023-11-19T03:17:57;101130.38;;;5.17;75.20
46045;BME280;31781;54.094;13.428;2023-11-19T03:19:59;101134.06;;;5.16;75.52
46045;BME280;31781;54.094;13.428;2023-11-19T03:22:01;101120.75;;;5.14;76.09
46045;BME280;31781;54.094;13.428;2023-11-19T03:24:03;101109.09;;;5.14;75.66
46045;BME280;31781;54.094;13.428;2023-11-19T03:26:04;101107.25;;;5.14;75.63
46045;BME280;31781;54.094;13.428;2023-11-19T03:28:06;101105.59;;;5.13;75.82
46045;BME280;31781;54.094;13.428;2023-11-19T03:30:09;101095.81;;;5.12;76.24
46045;BME280;31781;54.094;13.428;2023-11-19T03:32:10;101090.22;;;5.14;75.95
46045;BME280;31781;54.094;13.428;2023-11-19T03:34:13;101077.78;;;5.13;75.69
46045;BME280;31781;54.094;13.428;2023-11-19T03:36:15;101081.47;;;5.12;75.90
46045;BME280;31781;54.094;13.428;2023-11-19T03:38:16;101061.94;;;5.10;75.74
46045;BME280;31781;54.094;13.428;2023-11-19T03:40:18;101050.44;;;5.08;76.10
46045;BME280;31781;54.094;13.428;2023-11-19T03:42:20;101055.00;;;5.07;76.19
46045;BME280;31781;54.094;13.428;2023-11-19T03:44:22;101049.44;;;5.09;76.57
46045;BME280;31781;54.094;13.428;2023-11-19T03:46:23;101054.84;;;5.09;76.47
46045;BME280;31781;54.094;13.428;2023-11-19T03:48:25;101040.50;;;5.08;75.64
46045;BME280;31781;54.094;13.428;2023-11-19T03:50:28;101034.25;;;5.08;75.95
46045;BME280;31781;54.094;13.428;2023-11-19T03:52:30;101020.97;;;5.06;76.16
46045;BME280;31781;54.094;13.428;2023-11-19T03:54:31;101026.50;;;5.05;76.08
46045;BME280;31781;54.094;13.428;2023-11-19T03:56:33;101014.22;;;5.02;76.32
46045;BME280;31781;54.094;13.428;2023-11-19T03:58:35;101008.97;;;5.01;76.83
46045;BME280;31781;54.094;13.428;2023-11-19T04:00:36;100994.16;;;5.05;75.71
46045;BME280;31781;54.094;13.428;2023-11-19T04:02:38;100994.50;;;5.02;76.43
46045;BME280;31781;54.094;13.428;2023-11-19T04:04:40;101003.59;;;5.01;76.22
46045;BME280;31781;54.094;13.428;2023-11-19T04:06:43;100982.00;;;5.01;76.20
46045;BME280;31781;54.094;13.428;2023-11-19T04:08:45;100991.28;;;4.98;76.40
46045;BME280;31781;54.094;13.428;2023-11-19T04:10:47;100977.81;;;4.98;76.01
46045;BME280;31781;54.094;13.428;2023-11-19T04:12:49;100971.22;;;5.01;75.88
46045;BME280;31781;54.094;13.428;2023-11-19T04:14:50;100973.25;;;4.99;75.79
46045;BME280;31781;54.094;13.428;2023-11-19T04:17:02;100968.03;;;4.97;76.65
46045;BME280;31781;54.094;13.428;2023-11-19T04:19:04;100964.47;;;4.97;76.15
46045;BME280;31781;54.094;13.428;2023-11-19T04:21:06;100959.44;;;4.94;76.41
46045;BME280;31781;54.094;13.428;2023-11-19T04:23:09;100943.41;;;4.92;77.23
46045;BME280;31781;54.094;13.428;2023-11-19T04:25:11;100941.75;;;4.91;77.11
46045;BME280;31781;54.094;13.428;2023-11-19T04:27:13;100938.84;;;4.93;77.06
46045;BME280;31781;54.094;13.428;2023-11-19T04:29:16;100939.69;;;4.93;76.73
46045;BME280;31781;54.094;13.428;2023-11-19T04:31:17;100936.16;;;4.93;76.89
46045;BME280;31781;54.094;13.428;2023-11-19T04:33:19;100932.97;;;4.89;76.93
46045;BME280;31781;54.094;13.428;2023-11-19T04:35:21;100938.19;;;4.90;77.05
46045;BME280;31781;54.094;13.428;2023-11-19T04:37:22;100911.22;;;4.90;77.56
46045;BME280;31781;54.094;13.428;2023-11-19T04:39:26;100920.31;;;4.89;77.82
46045;BME280;31781;54.094;13.428;2023-11-19T04:41:27;100918.47;;;4.90;77.90
46045;BME280;31781;54.094;13.428;2023-11-19T04:43:29;100905.84;;;4.90;77.46
46045;BME280;31781;54.094;13.428;2023-11-19T04:45:30;100912.25;;;4.89;78.06
46045;BME280;31781;54.094;13.428;2023-11-19T04:47:32;100893.38;;;4.89;77.59
46045;BME280;31781;54.094;13.428;2023-11-19T04:49:33;100908.69;;;4.89;77.51
46045;BME280;31781;54.094;13.428;2023-11-19T04:51:38;100898.75;;;4.89;78.00
46045;BME280;31781;54.094;13.428;2023-11-19T04:53:39;100898.75;;;4.89;77.80
46045;BME280;31781;54.094;13.428;2023-11-19T04:55:42;100885.28;;;4.89;77.72
46045;BME280;31781;54.094;13.428;2023-11-19T04:57:44;100881.59;;;4.90;78.01
46045;BME280;31781;54.094;13.428;2023-11-19T04:59:45;100879.03;;;4.89;77.72
46045;BME280;31781;54.094;13.428;2023-11-19T05:01:47;100866.41;;;4.89;77.84
46045;BME280;31781;54.094;13.428;2023-11-19T05:03:49;100869.94;;;4.90;78.27
46045;BME280;31781;54.094;13.428;2023-11-19T05:05:50;100859.31;;;4.88;78.00
46045;BME280;31781;54.094;13.428;2023-11-19T05:07:52;100844.84;;;4.89;78.12
46045;BME280;31781;54.094;13.428;2023-11-19T05:09:54;100829.66;;;4.88;78.14
46045;BME280;31781;54.094;13.428;2023-11-19T05:11:56;100831.34;;;4.89;78.49
46045;BME280;31781;54.094;13.428;2023-11-19T05:13:58;100846.69;;;4.89;78.26
46045;BME280;31781;54.094;13.428;2023-11-19T05:16:00;100823.28;;;4.89;78.23
46045;BME280;31781;54.094;13.428;2023-11-19T05:18:02;100826.81;;;4.90;78.77
46045;BME280;31781;54.094;13.428;2023-11-19T05:20:04;100824.97;;;4.90;78.71
46045;BME280;31781;54.094;13.428;2023-11-19T05:22:06;100828.66;;;4.89;79.20
46045;BME280;31781;54.094;13.428;2023-11-19T05:24:07;100817.88;;;4.89;79.09
46045;BME280;31781;54.094;13.428;2023-11-19T05:26:09;100823.13;;;4.91;78.43
46045;BME280;31781;54.094;13.428;2023-11-19T05:28:12;100817.88;;;4.89;79.08
46045;BME280;31781;54.094;13.428;2023-11-19T05:30:13;100813.34;;;4.90;78.81
46045;BME280;31781;54.094;13.428;2023-11-19T05:32:15;100804.25;;;4.91;78.51
46045;BME280;31781;54.094;13.428;2023-11-19T05:34:16;100808.78;;;4.90;78.64
46045;BME280;31781;54.094;13.428;2023-11-19T05:36:18;100799.66;;;4.91;78.64
46045;BME280;31781;54.094;13.428;2023-11-19T05:38:20;100793.47;;;4.91;79.15
46045;BME280;31781;54.094;13.428;2023-11-19T05:40:21;100810.44;;;4.91;78.57
46045;BME280;31781;54.094;13.428;2023-11-19T05:42:23;100796.97;;;4.91;78.70
46045;BME280;31781;54.094;13.428;2023-11-19T05:44:26;100802.34;;;4.91;79.19
46045;BME280;31781;54.094;13.428;2023-11-19T05:46:28;100794.28;;;4.91;78.81
46045;BME280;31781;54.094;13.428;2023-11-19T05:48:30;100792.63;;;4.90;78.97
46045;BME280;31781;54.094;13.428;2023-11-19T05:50:32;100778.09;;;4.91;79.04
46045;BME280;31781;54.094;13.428;2023-11-19T05:52:33;100782.47;;;4.93;78.63
46045;BME280;31781;54.094;13.428;2023-11-19T05:54:35;100778.28;;;4.90;78.99
46045;BME280;31781;54.094;13.428;2023-11-19T05:56:37;100771.41;;;4.87;78.99
46045;BME280;31781;54.094;13.428;2023-11-19T05:58:38;100774.91;;;4.88;79.15
46045;BME280;31781;54.094;13.428;2023-11-19T06:00:42;100768.69;;;4.87;78.67
46045;BME280;31781;54.094;13.428;2023-11-19T06:02:44;100759.75;;;4.87;78.76
46045;BME280;31781;54.094;13.428;2023-11-19T06:04:47;100747.94;;;4.88;78.79
46045;BME280;31781;54.094;13.428;2023-11-19T06:06:49;100748.63;;;4.90;77.97
46045;BME280;31781;54.094;13.428;2023-11-19T06:08:51;100737.34;;;4.86;78.32
46045;BME280;31781;54.094;13.428;2023-11-19T06:10:52;100740.91;;;4.87;78.13
46045;BME280;31781;54.094;13.428;2023-11-19T06:12:54;100727.56;;;4.85;78.48
46045;BME280;31781;54.094;13.428;2023-11-19T06:14:55;100722.53;;;4.82;78.47
46045;BME280;31781;54.094;13.428;2023-11-19T06:16:58;100720.69;;;4.83;77.78
46045;BME280;31781;54.094;13.428;2023-11-19T06:19:00;100710.06;;;4.81;78.08
46045;BME280;31781;54.094;13.428;2023-11-19T06:21:02;100700.28;;;4.80;78.44
46045;BME280;31781;54.094;13.428;2023-11-19T06:23:03;100701.13;;;4.81;78.10
46045;BME280;31781;54.094;13.428;2023-11-19T06:25:06;100704.88;;;4.80;77.94
46045;BME280;31781;54.094;13.428;2023-11-19T06:27:08;100700.47;;;4.79;78.32
46045;BME280;31781;54.094;13.428;2023-11-19T06:29:09;100700.63;;;4.77;78.11
46045;BME280;31781;54.094;13.428;2023-11-19T06:31:11;100699.78;;;4.77;78.27
46045;BME280;31781;54.094;13.428;2023-11-19T06:33:14;100710.56;;;4.77;78.58
46045;BME280;31781;54.094;13.428;2023-11-19T06:35:16;100708.06;;;4.75;78.08
46045;BME280;31781;54.094;13.428;2023-11-19T06:37:18;100701.84;;;4.75;79.03
46045;BME280;31781;54.094;13.428;2023-11-19T06:39:19;100709.75;;;4.76;78.92
46045;BME280;31781;54.094;13.428;2023-11-19T06:41:21;100710.75;;;4.75;78.69
46045;BME280;31781;54.094;13.428;2023-11-19T06:43:22;100706.22;;;4.76;78.71
46045;BME280;31781;54.094;13.428;2023-11-19T06:45:24;100709.75;;;4.76;78.62
46045;BME280;31781;54.094;13.428;2023-11-19T06:47:26;100714.31;;;4.76;78.31
46045;BME280;31781;54.094;13.428;2023-11-19T06:49:29;100703.53;;;4.76;78.82
46045;BME280;31781;54.094;13.428;2023-11-19T06:51:30;100703.34;;;4.77;78.46
46045;BME280;31781;54.094;13.428;2023-11-19T06:53:32;100692.75;;;4.76;78.31
46045;BME280;31781;54.094;13.428;2023-11-19T06:55:33;100699.13;;;4.75;78.21
46045;BME280;31781;54.094;13.428;2023-11-19T06:57:35;100692.06;;;4.74;78.65
46045;BME280;31781;54.094;13.428;2023-11-19T06:59:37;100700.13;;;4.74;78.97
46045;BME280;31781;54.094;13.428;2023-11-19T07:01:38;100677.56;;;4.75;78.75
46045;BME280;31781;54.094;13.428;2023-11-19T07:03:40;100681.28;;;4.74;78.55
46045;BME280;31781;54.094;13.428;2023-11-19T07:05:43;100667.81;;;4.74;78.61
46045;BME280;31781;54.094;13.428;2023-11-19T07:07:45;100670.50;;;4.74;79.27
46045;BME280;31781;54.094;13.428;2023-11-19T07:09:46;100659.34;;;4.77;78.62
46045;BME280;31781;54.094;13.428;2023-11-19T07:11:48;100657.69;;;4.76;78.78
46045;BME280;31781;54.094;13.428;2023-11-19T07:13:50;100651.63;;;4.74;78.55
46045;BME280;31781;54.094;13.428;2023-11-19T07:15:51;100644.56;;;4.73;78.63
46045;BME280;31781;54.094;13.428;2023-11-19T07:17:53;100647.94;;;4.75;78.28
46045;BME280;31781;54.094;13.428;2023-11-19T07:19:57;100647.28;;;4.73;78.64
46045;BME280;31781;54.094;13.428;2023-11-19T07:22:00;100642.88;;;4.72;78.50
46045;BME280;31781;54.094;13.428;2023-11-19T07:24:02;100632.09;;;4.72;78.64
46045;BME280;31781;54.094;13.428;2023-11-19T07:26:05;100617.94;;;4.70;79.10
46045;BME280;31781;54.094;13.428;2023-11-19T07:28:07;100606.16;;;4.71;78.62
46045;BME280;31781;54.094;13.428;2023-11-19T07:30:09;100604.31;;;4.71;79.13
46045;BME280;31781;54.094;13.428;2023-11-19T07:32:10;100602.47;;;4.72;78.74
46045;BME280;31781;54.094;13.428;2023-11-19T07:34:12;100587.31;;;4.71;78.59
46045;BME280;31781;54.094;13.428;2023-11-19T07:36:13;100593.53;;;4.71;79.11
46045;BME280;31781;54.094;13.428;2023-11-19T07:38:16;100637.66;;;4.70;78.95
46045;BME280;31781;54.094;13.428;2023-11-19T07:40:18;100619.63;;;4.71;79.24
46045;BME280;31781;54.094;13.428;2023-11-19T07:42:19;100608.00;;;4.70;79.10
46045;BME280;31781;54.094;13.428;2023-11-19T07:44:21;100615.94;;;4.72;78.87
46045;BME280;31781;54.094;13.428;2023-11-19T07:46:23;100614.25;;;4.71;79.69
46045;BME280;31781;54.094;13.428;2023-11-19T07:48:25;100617.63;;;4.73;78.96
46045;BME280;31781;54.094;13.428;2023-11-19T07:50:26;100628.22;;;4.74;78.96
46045;BME280;31781;54.094;13.428;2023-11-19T07:52:28;100623.84;;;4.73;78.84
46045;BME280;31781;54.094;13.428;2023-11-19T07:54:31;100637.31;;;4.73;79.26
46045;BME280;31781;54.094;13.428;2023-11-19T07:56:33;100628.56;;;4.71;78.89
46045;BME280;31781;54.094;13.428;2023-11-19T07:58:35;100640.19;;;4.72;79.73
46045;BME280;31781;54.094;13.428;2023-11-19T08:00:36;100612.25;;;4.73;78.80
46045;BME280;31781;54.094;13.428;2023-11-19T08:02:38;100613.91;;;4.74;79.13
46045;BME280;31781;54.094;13.428;2023-11-19T08:04:40;100629.22;;;4.73;78.71
46045;BME280;31781;54.094;13.428;2023-11-19T08:06:41;100626.38;;;4.75;79.55
46045;BME280;31781;54.094;13.428;2023-11-19T08:08:43;100638.34;;;4.72;79.60
46045;BME280;31781;54.094;13.428;2023-11-19T08:10:46;100628.22;;;4.74;79.49
46045;BME280;31781;54.094;13.428;2023-11-19T08:12:48;100615.75;;;4.73;78.97
46045;BME280;31781;54.094;13.428;2023-11-19T08:14:50;100618.44;;;4.73;79.56
46045;BME280;31781;54.094;13.428;2023-11-19T08:16:51;100620.97;;;4.75;79.11
46045;BME280;31781;54.094;13.428;2023-11-19T08:18:53;100607.34;;;4.76;79.32
46045;BME280;31781;54.094;13.428;2023-11-19T08:20:54;100603.81;;;4.76;79.65
46045;BME280;31781;54.094;13.428;2023-11-19T08:22:56;100595.53;;;4.77;79.27
46045;BME280;31781;54.094;13.428;2023-11-19T08:24:57;100601.75;;;4.78;79.43
46045;BME280;31781;54.094;13.428;2023-11-19T08:27:00;100597.22;;;4.78;79.44
46045;BME280;31781;54.094;13.428;2023-11-19T08:29:04;100606.97;;;4.79;79.76
46045;BME280;31781;54.094;13.428;2023-11-19T08:31:05;100600.56;;;4.80;79.55
46045;BME280;31781;54.094;13.428;2023-11-19T08:33:07;100609.47;;;4.81;79.41
46045;BME280;31781;54.094;13.428;2023-11-19T08:35:09;100607.63;;;4.81;80.18
46045;BME280;31781;54.094;13.428;2023-11-19T08:37:10;100590.44;;;4.82;79.55
46045;BME280;31781;54.094;13.428;2023-11-19T08:39:12;100589.44;;;4.83;79.42
46045;BME280;31781;54.094;13.428;2023-11-19T08:41:14;100589.44;;;4.83;79.88
46045;BME280;31781;54.094;13.428;2023-11-19T08:43:17;100584.72;;;4.85;80.10
46045;BME280;31781;54.094;13.428;2023-11-19T08:45:18;100578.31;;;4.86;79.55
46045;BME280;31781;54.094;13.428;2023-11-19T08:47:20;100569.53;;;4.84;79.90
46045;BME280;31781;54.094;13.428;2023-11-19T08:49:21;100572.72;;;4.88;79.61
46045;BME280;31781;54.094;13.428;2023-11-19T08:51:23;100564.63;;;4.88;79.68
46045;BME280;31781;54.094;13.428;2023-11-19T08:53:24;100553.84;;;4.88;79.76
46045;BME280;31781;54.094;13.428;2023-11-19T08:55:26;100553.03;;;4.87;80.17
46045;BME280;31781;54.094;13.428;2023-11-19T08:57:28;100548.28;;;4.89;79.99
46045;BME280;31781;54.094;13.428;2023-11-19T08:59:30;100535.66;;;4.90;80.14
46045;BME280;31781;54.094;13.428;2023-11-19T09:01:32;100508.50;;;4.91;79.71
46045;BME280;31781;54.094;13.428;2023-11-19T09:03:34;100497.06;;;4.89;79.81
46045;BME280;31781;54.094;13.428;2023-11-19T09:05:35;100493.19;;;4.92;80.36
46045;BME280;31781;54.094;13.428;2023-11-19T09:07:37;100480.53;;;4.93;80.04
46045;BME280;31781;54.094;13.428;2023-11-19T09:09:38;100479.53;;;4.94;80.13
46045;BME280;31781;54.094;13.428;2023-11-19T09:11:40;100467.72;;;4.95;80.87
46045;BME280;31781;54.094;13.428;2023-11-19T09:13:42;100457.97;;;4.94;80.38
46045;BME280;31781;54.094;13.428;2023-11-19T09:15:45;100478.53;;;4.95;81.02
46045;BME280;31781;54.094;13.428;2023-11-19T09:17:46;100480.00;;;4.97;80.62
46045;BME280;31781;54.094;13.428;2023-11-19T09:19:48;100495.34;;;4.97;80.55
46045;BME280;31781;54.094;13.428;2023-11-19T09:21:50;100505.28;;;4.96;80.32
46045;BME280;31781;54.094;13.428;2023-11-19T09:23:51;100502.41;;;4.98;80.22
46045;BME280;31781;54.094;13.428;2023-11-19T09:25:53;100509.50;;;4.99;80.47
46045;BME280;31781;54.094;13.428;2023-11-19T09:27:55;100503.06;;;5.00;80.72
46045;BME280;31781;54.094;13.428;2023-11-19T09:29:56;100496.50;;;5.02;80.79
46045;BME280;31781;54.094;13.428;2023-11-19T09:31:59;100499.19;;;5.02;80.45
46045;BME280;31781;54.094;13.428;2023-11-19T09:34:01;100490.06;;;5.03;80.58
46045;BME280;31781;54.094;13.428;2023-11-19T09:36:03;100481.81;;;5.05;80.76
46045;BME280;31781;54.094;13.428;2023-11-19T09:38:05;100486.19;;;5.06;81.11
46045;BME280;31781;54.094;13.428;2023-11-19T09:40:07;100477.91;;;5.07;80.61
46045;BME280;31781;54.094;13.428;2023-11-19T09:42:09;100476.88;;;5.08;80.91
46045;BME280;31781;54.094;13.428;2023-11-19T09:44:11;100478.59;;;5.09;80.71
46045;BME280;31781;54.094;13.428;2023-11-19T09:46:13;100469.44;;;5.10;80.58
46045;BME280;31781;54.094;13.428;2023-11-19T09:48:18;100469.28;;;5.12;81.17
46045;BME280;31781;54.094;13.428;2023-11-19T09:50:20;100459.34;;;5.12;80.93
46045;BME280;31781;54.094;13.428;2023-11-19T09:52:22;100446.50;;;5.14;81.19
46045;BME280;31781;54.094;13.428;2023-11-19T09:54:23;100437.41;;;5.15;80.78
46045;BME280;31781;54.094;13.428;2023-11-19T09:56:25;100436.38;;;5.16;80.65
46045;BME280;31781;54.094;13.428;2023-11-19T09:58:28;100423.75;;;5.17;81.20
46045;BME280;31781;54.094;13.428;2023-11-19T10:00:30;100411.91;;;5.18;80.66
46045;BME280;31781;54.094;13.428;2023-11-19T10:02:33;100420.84;;;5.18;80.92
46045;BME280;31781;54.094;13.428;2023-11-19T10:04:38;100427.91;;;5.19;80.83
46045;BME280;31781;54.094;13.428;2023-11-19T10:06:41;100434.16;;;5.20;81.29
46045;BME280;31781;54.094;13.428;2023-11-19T10:08:44;100425.22;;;5.19;80.91
46045;BME280;31781;54.094;13.428;2023-11-19T10:10:45;100434.81;;;5.22;80.51
46045;BME280;31781;54.094;13.428;2023-11-19T10:12:47;100441.03;;;5.22;81.12
46045;BME280;31781;54.094;13.428;2023-11-19T10:14:52;100425.69;;;5.23;80.90
46045;BME280;31781;54.094;13.428;2023-11-19T10:16:55;100424.69;;;5.24;80.75
46045;BME280;31781;54.094;13.428;2023-11-19T10:18:56;100418.25;;;5.25;80.86
46045;BME280;31781;54.094;13.428;2023-11-19T10:20:59;100427.19;;;5.25;81.10
46045;BME280;31781;54.094;13.428;2023-11-19T10:23:01;100425.16;;;5.27;80.36
46045;BME280;31781;54.094;13.428;2023-11-19T10:25:03;100425.16;;;5.27;80.59
46045;BME280;31781;54.094;13.428;2023-11-19T10:27:06;100424.97;;;5.29;80.71
46045;BME280;31781;54.094;13.428;2023-11-19T10:29:08;100415.84;;;5.30;81.11
46045;BME280;31781;54.094;13.428;2023-11-19T10:31:10;100403.03;;;5.32;81.45
46045;BME280;31781;54.094;13.428;2023-11-19T10:33:12;100395.75;;;5.32;81.19
46045;BME280;31781;54.094;13.428;2023-11-19T10:35:14;100386.66;;;5.33;81.22
46045;BME280;31781;54.094;13.428;2023-11-19T10:37:28;100372.78;;;5.36;81.03